sensor_id;sensor_type;location;lat;lon;timestamp;temperature;humidity
18456;DHT22;9357;49.900;8.208;2023-01-31T00:00:05;4.00;99.90
18456;DHT22;9357;49.900;8.208;2023-01-31T00:01:40;4.10;99.90
18456;DHT22;9357;49.900;8.208;2023-01-31T00:03:14;4.00;99.90
18456;DHT22;9357;49.900;8.208;2023-01-31T00:04:45;4.00;99.90
18456;DHT22;9357;49.900;8.208;2023-01-31T00:06:23;4.00;99.90
18456;DHT22;9357;49.900;8.208;2023-01-31T00:07:56;4.00;99.90
18456;DHT22;9357;49.900;8.208;2023-01-31T00:09:29;4.00;99.90
18456;DHT22;9357;49.900;8.208;2023-01-31T00:11:02;3.90;99.90
18456;DHT22;9357;49.900;8.208;2023-01-31T00:12:34;3.90;99.90
18456;DHT22;9357;49.900;8.208;2023-01-31T00:14:08;3.90;99.90
18456;DHT22;9357;49.900;8.208;2023-01-31T00:15:41;3.90;99.90
18456;DHT22;9357;49.900;8.208;2023-01-31T00:17:14;3.90;99.90
18456;DHT22;9357;49.900;8.208;2023-01-31T00:18:48;3.90;99.90
18456;DHT22;9357;49.900;8.208;2023-01-31T00:20:21;3.90;99.90
18456;DHT22;9357;49.900;8.208;2023-01-31T00:21:53;3.80;99.90
18456;DHT22;9357;49.900;8.208;2023-01-31T00:23:25;3.80;99.90
18456;DHT22;9357;49.900;8.208;2023-01-31T00:24:58;3.80;99.90
18456;DHT22;9357;49.900;8.208;2023-01-31T00:26:32;3.80;99.90
18456;DHT22;9357;49.900;8.208;2023-01-31T00:28:05;3.80;99.90
18456;DHT22;9357;49.900;8.208;2023-01-31T00:29:38;3.80;99.90
18456;DHT22;9357;49.900;8.208;2023-01-31T00:31:12;3.70;99.90
18456;DHT22;9357;49.900;8.208;2023-01-31T00:32:46;3.70;99.90
18456;DHT22;9357;49.900;8.208;2023-01-31T00:34:20;3.70;99.90
18456;DHT22;9357;49.900;8.208;2023-01-31T00:35:53;3.70;99.90
18456;DHT22;9357;49.900;8.208;2023-01-31T00:37:25;3.70;99.90
18456;DHT22;9357;49.900;8.208;2023-01-31T00:39:00;3.70;99.90
18456;DHT22;9357;49.900;8.208;2023-01-31T00:40:33;3.60;99.90
18456;DHT22;9357;49.900;8.208;2023-01-31T00:42:07;3.60;99.90
18456;DHT22;9357;49.900;8.208;2023-01-31T00:43:39;3.60;99.90
18456;DHT22;9357;49.900;8.208;2023-01-31T00:45:12;3.50;99.90
18456;DHT22;9357;49.900;8.208;2023-01-31T00:46:45;3.50;99.90
18456;DHT22;9357;49.900;8.208;2023-01-31T00:48:16;3.50;99.90
18456;DHT22;9357;49.900;8.208;2023-01-31T00:49:50;3.50;99.90
18456;DHT22;9357;49.900;8.208;2023-01-31T00:51:25;3.50;99.90
18456;DHT22;9357;49.900;8.208;2023-01-31T00:52:58;3.50;99.90
18456;DHT22;9357;49.900;8.208;2023-01-31T00:54:30;3.40;99.90
18456;DHT22;9357;49.900;8.208;2023-01-31T00:56:05;3.50;99.90
18456;DHT22;9357;49.900;8.208;2023-01-31T00:57:37;3.40;99.90
18456;DHT22;9357;49.900;8.208;2023-01-31T00:59:10;3.40;99.90
18456;DHT22;9357;49.900;8.208;2023-01-31T01:00:43;3.40;99.90
18456;DHT22;9357;49.900;8.208;2023-01-31T01:02:16;3.40;99.90
18456;DHT22;9357;49.900;8.208;2023-01-31T01:03:48;3.40;99.90
18456;DHT22;9357;49.900;8.208;2023-01-31T01:05:23;3.40;99.90
18456;DHT22;9357;49.900;8.208;2023-01-31T01:06:55;3.40;99.90
18456;DHT22;9357;49.900;8.208;2023-01-31T01:08:29;3.40;99.90
18456;DHT22;9357;49.900;8.208;2023-01-31T01:10:02;3.40;99.90
18456;DHT22;9357;49.900;8.208;2023-01-31T01:11:35;3.40;99.90
18456;DHT22;9357;49.900;8.208;2023-01-31T01:13:07;3.40;99.90
18456;DHT22;9357;49.900;8.208;2023-01-31T01:14:40;3.40;99.90
18456;DHT22;9357;49.900;8.208;2023-01-31T01:16:14;3.40;99.90
18456;DHT22;9357;49.900;8.208;2023-01-31T01:17:47;3.30;99.90
18456;DHT22;9357;49.900;8.208;2023-01-31T01:19:21;3.30;99.90
18456;DHT22;9357;49.900;8.208;2023-01-31T01:20:55;3.30;99.90
18456;DHT22;9357;49.900;8.208;2023-01-31T01:22:27;3.30;99.90
18456;DHT22;9357;49.900;8.208;2023-01-31T01:24:00;3.30;99.90
18456;DHT22;9357;49.900;8.208;2023-01-31T01:25:41;3.20;99.90
18456;DHT22;9357;49.900;8.208;2023-01-31T01:27:14;3.20;99.90
18456;DHT22;9357;49.900;8.208;2023-01-31T01:28:47;3.20;99.90
18456;DHT22;9357;49.900;8.208;2023-01-31T01:30:20;3.20;99.90
18456;DHT22;9357;49.900;8.208;2023-01-31T01:31:53;3.20;99.90
18456;DHT22;9357;49.900;8.208;2023-01-31T01:33:26;3.20;99.90
18456;DHT22;9357;49.900;8.208;2023-01-31T01:34:58;3.10;99.90
18456;DHT22;9357;49.900;8.208;2023-01-31T01:36:33;3.10;99.90
18456;DHT22;9357;49.900;8.208;2023-01-31T01:38:05;3.10;99.90
18456;DHT22;9357;49.900;8.208;2023-01-31T01:39:38;3.20;99.90
18456;DHT22;9357;49.900;8.208;2023-01-31T01:41:12;3.20;99.90
18456;DHT22;9357;49.900;8.208;2023-01-31T01:42:45;3.20;99.90
18456;DHT22;9357;49.900;8.208;2023-01-31T01:44:47;3.10;99.90
18456;DHT22;9357;49.900;8.208;2023-01-31T01:46:24;3.10;99.90
18456;DHT22;9357;49.900;8.208;2023-01-31T01:48:01;3.10;99.90
18456;DHT22;9357;49.900;8.208;2023-01-31T01:49:36;3.10;99.90
18456;DHT22;9357;49.900;8.208;2023-01-31T01:51:10;3.10;99.90
18456;DHT22;9357;49.900;8.208;2023-01-31T01:52:48;3.10;99.90
18456;DHT22;9357;49.900;8.208;2023-01-31T01:54:24;3.00;99.90
18456;DHT22;9357;49.900;8.208;2023-01-31T01:56:02;3.10;99.90
18456;DHT22;9357;49.900;8.208;2023-01-31T01:57:38;3.10;99.90
18456;DHT22;9357;49.900;8.208;2023-01-31T01:59:16;3.00;99.90
18456;DHT22;9357;49.900;8.208;2023-01-31T02:00:50;3.10;99.90
18456;DHT22;9357;49.900;8.208;2023-01-31T02:02:23;3.10;99.90
18456;DHT22;9357;49.900;8.208;2023-01-31T02:03:57;3.10;99.90
18456;DHT22;9357;49.900;8.208;2023-01-31T02:05:31;3.10;99.90
18456;DHT22;9357;49.900;8.208;2023-01-31T02:07:06;3.10;99.90
18456;DHT22;9357;49.900;8.208;2023-01-31T02:08:41;3.10;99.90
18456;DHT22;9357;49.900;8.208;2023-01-31T02:10:19;3.10;99.90
18456;DHT22;9357;49.900;8.208;2023-01-31T02:11:53;3.20;99.90
18456;DHT22;9357;49.900;8.208;2023-01-31T02:13:26;3.10;99.90
18456;DHT22;9357;49.900;8.208;2023-01-31T02:15:00;3.10;99.90
18456;DHT22;9357;49.900;8.208;2023-01-31T02:16:34;3.10;99.90
18456;DHT22;9357;49.900;8.208;2023-01-31T02:18:08;3.20;99.90
18456;DHT22;9357;49.900;8.208;2023-01-31T02:19:50;3.10;99.90
18456;DHT22;9357;49.900;8.208;2023-01-31T02:21:48;3.10;99.90
18456;DHT22;9357;49.900;8.208;2023-01-31T02:26:03;3.10;99.90
18456;DHT22;9357;49.900;8.208;2023-01-31T02:28:03;3.10;99.90
18456;DHT22;9357;49.900;8.208;2023-01-31T02:31:54;3.10;99.90
18456;DHT22;9357;49.900;8.208;2023-01-31T02:33:35;3.10;99.90
18456;DHT22;9357;49.900;8.208;2023-01-31T02:35:14;3.10;99.90
18456;DHT22;9357;49.900;8.208;2023-01-31T02:36:57;3.10;99.90
18456;DHT22;9357;49.900;8.208;2023-01-31T02:38:40;3.00;99.90
18456;DHT22;9357;49.900;8.208;2023-01-31T02:40:22;3.00;99.90
18456;DHT22;9357;49.900;8.208;2023-01-31T02:42:05;3.00;99.90
18456;DHT22;9357;49.900;8.208;2023-01-31T02:43:47;3.00;99.90
18456;DHT22;9357;49.900;8.208;2023-01-31T02:45:44;3.00;99.90
18456;DHT22;9357;49.900;8.208;2023-01-31T02:47:30;3.00;99.90
18456;DHT22;9357;49.900;8.208;2023-01-31T02:49:09;3.00;99.90
18456;DHT22;9357;49.900;8.208;2023-01-31T02:50:47;3.00;99.90
18456;DHT22;9357;49.900;8.208;2023-01-31T02:52:25;3.00;99.90
18456;DHT22;9357;49.900;8.208;2023-01-31T02:54:02;3.00;99.90
18456;DHT22;9357;49.900;8.208;2023-01-31T02:55:41;3.00;99.90
18456;DHT22;9357;49.900;8.208;2023-01-31T02:57:34;3.00;99.90
18456;DHT22;9357;49.900;8.208;2023-01-31T02:59:09;3.00;99.90
18456;DHT22;9357;49.900;8.208;2023-01-31T03:00:44;3.00;99.90
18456;DHT22;9357;49.900;8.208;2023-01-31T03:02:18;3.00;99.90
18456;DHT22;9357;49.900;8.208;2023-01-31T03:03:50;3.00;99.90
18456;DHT22;9357;49.900;8.208;2023-01-31T03:05:25;3.00;99.90
18456;DHT22;9357;49.900;8.208;2023-01-31T03:07:03;3.00;99.90
18456;DHT22;9357;49.900;8.208;2023-01-31T03:08:40;3.00;99.90
18456;DHT22;9357;49.900;8.208;2023-01-31T03:10:31;3.00;99.90
18456;DHT22;9357;49.900;8.208;2023-01-31T03:12:28;3.00;99.90
18456;DHT22;9357;49.900;8.208;2023-01-31T03:14:10;3.00;99.90
18456;DHT22;9357;49.900;8.208;2023-01-31T03:15:57;2.90;99.90
18456;DHT22;9357;49.900;8.208;2023-01-31T03:17:56;2.90;99.90
18456;DHT22;9357;49.900;8.208;2023-01-31T03:19:33;2.90;99.90
18456;DHT22;9357;49.900;8.208;2023-01-31T03:21:12;2.90;99.90
18456;DHT22;9357;49.900;8.208;2023-01-31T03:22:48;2.90;99.90
18456;DHT22;9357;49.900;8.208;2023-01-31T03:24:23;2.90;99.90
18456;DHT22;9357;49.900;8.208;2023-01-31T03:25:58;2.90;99.90
18456;DHT22;9357;49.900;8.208;2023-01-31T03:27:31;2.90;99.90
18456;DHT22;9357;49.900;8.208;2023-01-31T03:29:05;2.90;99.90
18456;DHT22;9357;49.900;8.208;2023-01-31T03:30:44;2.90;99.90
18456;DHT22;9357;49.900;8.208;2023-01-31T03:32:23;2.90;99.90
18456;DHT22;9357;49.900;8.208;2023-01-31T03:33:59;2.90;99.90
18456;DHT22;9357;49.900;8.208;2023-01-31T03:35:34;2.80;99.90
18456;DHT22;9357;49.900;8.208;2023-01-31T03:37:16;2.80;99.90
18456;DHT22;9357;49.900;8.208;2023-01-31T03:38:56;2.80;99.90
18456;DHT22;9357;49.900;8.208;2023-01-31T03:40:37;2.80;99.90
18456;DHT22;9357;49.900;8.208;2023-01-31T03:42:15;2.80;99.90
18456;DHT22;9357;49.900;8.208;2023-01-31T03:43:55;2.70;99.90
18456;DHT22;9357;49.900;8.208;2023-01-31T03:45:33;2.80;99.90
18456;DHT22;9357;49.900;8.208;2023-01-31T03:47:12;2.80;99.90
18456;DHT22;9357;49.900;8.208;2023-01-31T03:48:49;2.70;99.90
18456;DHT22;9357;49.900;8.208;2023-01-31T03:50:26;2.70;99.90
18456;DHT22;9357;49.900;8.208;2023-01-31T03:52:04;2.80;99.90
18456;DHT22;9357;49.900;8.208;2023-01-31T03:53:42;2.70;99.90
18456;DHT22;9357;49.900;8.208;2023-01-31T03:55:20;2.80;99.90
18456;DHT22;9357;49.900;8.208;2023-01-31T03:56:57;2.70;99.90
18456;DHT22;9357;49.900;8.208;2023-01-31T03:58:34;2.80;99.90
18456;DHT22;9357;49.900;8.208;2023-01-31T04:00:13;2.80;99.90
18456;DHT22;9357;49.900;8.208;2023-01-31T04:01:48;2.80;99.90
18456;DHT22;9357;49.900;8.208;2023-01-31T04:03:27;2.80;99.90
18456;DHT22;9357;49.900;8.208;2023-01-31T04:05:06;2.80;99.90
18456;DHT22;9357;49.900;8.208;2023-01-31T04:06:40;2.80;99.90
18456;DHT22;9357;49.900;8.208;2023-01-31T04:08:12;2.80;99.90
18456;DHT22;9357;49.900;8.208;2023-01-31T04:09:47;2.80;99.90
18456;DHT22;9357;49.900;8.208;2023-01-31T04:11:22;2.80;99.90
18456;DHT22;9357;49.900;8.208;2023-01-31T04:12:56;2.70;99.90
18456;DHT22;9357;49.900;8.208;2023-01-31T04:14:28;2.80;99.90
18456;DHT22;9357;49.900;8.208;2023-01-31T04:16:01;2.70;99.90
18456;DHT22;9357;49.900;8.208;2023-01-31T04:17:35;2.70;99.90
18456;DHT22;9357;49.900;8.208;2023-01-31T04:19:07;2.80;99.90
18456;DHT22;9357;49.900;8.208;2023-01-31T04:20:40;2.80;99.90
18456;DHT22;9357;49.900;8.208;2023-01-31T04:22:12;2.80;99.90
18456;DHT22;9357;49.900;8.208;2023-01-31T04:23:45;2.70;99.90
18456;DHT22;9357;49.900;8.208;2023-01-31T04:25:19;2.80;99.90
18456;DHT22;9357;49.900;8.208;2023-01-31T04:26:52;2.70;99.90
18456;DHT22;9357;49.900;8.208;2023-01-31T04:28:25;2.80;99.90
18456;DHT22;9357;49.900;8.208;2023-01-31T04:29:58;2.80;99.90
18456;DHT22;9357;49.900;8.208;2023-01-31T04:31:30;2.80;99.90
18456;DHT22;9357;49.900;8.208;2023-01-31T04:33:03;2.70;99.90
18456;DHT22;9357;49.900;8.208;2023-01-31T04:34:36;2.70;99.90
18456;DHT22;9357;49.900;8.208;2023-01-31T04:36:09;2.70;99.90
18456;DHT22;9357;49.900;8.208;2023-01-31T04:37:41;2.70;99.90
18456;DHT22;9357;49.900;8.208;2023-01-31T04:39:14;2.70;99.90
18456;DHT22;9357;49.900;8.208;2023-01-31T04:40:48;2.70;99.90
18456;DHT22;9357;49.900;8.208;2023-01-31T04:42:21;2.60;99.90
18456;DHT22;9357;49.900;8.208;2023-01-31T04:43:54;2.70;99.90
18456;DHT22;9357;49.900;8.208;2023-01-31T04:45:26;2.70;99.90
18456;DHT22;9357;49.900;8.208;2023-01-31T04:46:59;2.70;99.90
18456;DHT22;9357;49.900;8.208;2023-01-31T04:48:32;2.70;99.90
18456;DHT22;9357;49.900;8.208;2023-01-31T04:50:05;2.70;99.90
18456;DHT22;9357;49.900;8.208;2023-01-31T04:51:39;2.60;99.90
18456;DHT22;9357;49.900;8.208;2023-01-31T04:53:11;2.60;99.90
18456;DHT22;9357;49.900;8.208;2023-01-31T04:54:44;2.60;99.90
18456;DHT22;9357;49.900;8.208;2023-01-31T04:56:18;2.60;99.90
18456;DHT22;9357;49.900;8.208;2023-01-31T04:57:51;2.60;99.90
18456;DHT22;9357;49.900;8.208;2023-01-31T04:59:23;2.60;99.90
18456;DHT22;9357;49.900;8.208;2023-01-31T05:00:56;2.50;99.90
18456;DHT22;9357;49.900;8.208;2023-01-31T05:02:30;2.50;99.90
18456;DHT22;9357;49.900;8.208;2023-01-31T05:04:03;2.50;99.90
18456;DHT22;9357;49.900;8.208;2023-01-31T05:05:36;2.50;99.90
18456;DHT22;9357;49.900;8.208;2023-01-31T05:07:09;2.50;99.90
18456;DHT22;9357;49.900;8.208;2023-01-31T05:08:42;2.50;99.90
18456;DHT22;9357;49.900;8.208;2023-01-31T05:10:15;2.50;99.90
18456;DHT22;9357;49.900;8.208;2023-01-31T05:11:50;2.50;99.90
18456;DHT22;9357;49.900;8.208;2023-01-31T05:13:22;2.50;99.90
18456;DHT22;9357;49.900;8.208;2023-01-31T05:14:55;2.50;99.90
18456;DHT22;9357;49.900;8.208;2023-01-31T05:16:28;2.40;99.90
18456;DHT22;9357;49.900;8.208;2023-01-31T05:18:02;2.40;99.90
18456;DHT22;9357;49.900;8.208;2023-01-31T05:19:34;2.40;99.90
18456;DHT22;9357;49.900;8.208;2023-01-31T05:21:07;2.40;99.90
18456;DHT22;9357;49.900;8.208;2023-01-31T05:22:40;2.40;99.90
18456;DHT22;9357;49.900;8.208;2023-01-31T05:24:11;2.40;99.90
18456;DHT22;9357;49.900;8.208;2023-01-31T05:25:47;2.40;99.90
18456;DHT22;9357;49.900;8.208;2023-01-31T05:27:23;2.40;99.90
18456;DHT22;9357;49.900;8.208;2023-01-31T05:28:56;2.40;99.90
18456;DHT22;9357;49.900;8.208;2023-01-31T05:30:31;2.40;99.90
18456;DHT22;9357;49.900;8.208;2023-01-31T05:32:04;2.40;99.90
18456;DHT22;9357;49.900;8.208;2023-01-31T05:33:38;2.40;99.90
18456;DHT22;9357;49.900;8.208;2023-01-31T05:35:11;2.40;99.90
18456;DHT22;9357;49.900;8.208;2023-01-31T05:36:44;2.40;99.90
18456;DHT22;9357;49.900;8.208;2023-01-31T05:38:17;2.40;99.90
18456;DHT22;9357;49.900;8.208;2023-01-31T05:39:50;2.40;99.90
18456;DHT22;9357;49.900;8.208;2023-01-31T05:41:22;2.40;99.90
18456;DHT22;9357;49.900;8.208;2023-01-31T05:42:56;2.40;99.90
18456;DHT22;9357;49.900;8.208;2023-01-31T05:44:31;2.40;99.90
18456;DHT22;9357;49.900;8.208;2023-01-31T05:46:04;2.40;99.90
18456;DHT22;9357;49.900;8.208;2023-01-31T05:47:37;2.40;99.90
18456;DHT22;9357;49.900;8.208;2023-01-31T05:49:10;2.40;99.90
18456;DHT22;9357;49.900;8.208;2023-01-31T05:50:43;2.40;99.90
18456;DHT22;9357;49.900;8.208;2023-01-31T05:52:15;2.40;99.90
18456;DHT22;9357;49.900;8.208;2023-01-31T05:53:48;2.40;99.90
18456;DHT22;9357;49.900;8.208;2023-01-31T05:55:21;2.50;99.90
18456;DHT22;9357;49.900;8.208;2023-01-31T05:56:54;2.60;99.90
18456;DHT22;9357;49.900;8.208;2023-01-31T05:58:28;2.60;99.90
18456;DHT22;9357;49.900;8.208;2023-01-31T06:00:02;2.70;99.90
18456;DHT22;9357;49.900;8.208;2023-01-31T06:01:34;2.70;99.90
18456;DHT22;9357;49.900;8.208;2023-01-31T06:03:08;2.70;99.90
18456;DHT22;9357;49.900;8.208;2023-01-31T06:04:41;2.70;99.90
18456;DHT22;9357;49.900;8.208;2023-01-31T06:06:13;2.70;99.90
18456;DHT22;9357;49.900;8.208;2023-01-31T06:07:46;2.70;99.90
18456;DHT22;9357;49.900;8.208;2023-01-31T06:09:19;2.80;99.90
18456;DHT22;9357;49.900;8.208;2023-01-31T06:10:52;2.80;99.90
18456;DHT22;9357;49.900;8.208;2023-01-31T06:12:24;2.80;99.90
18456;DHT22;9357;49.900;8.208;2023-01-31T06:13:57;2.80;99.90
18456;DHT22;9357;49.900;8.208;2023-01-31T06:15:30;2.80;99.90
18456;DHT22;9357;49.900;8.208;2023-01-31T06:17:03;2.80;99.90
18456;DHT22;9357;49.900;8.208;2023-01-31T06:18:36;2.70;99.90
18456;DHT22;9357;49.900;8.208;2023-01-31T06:20:10;2.70;99.90
18456;DHT22;9357;49.900;8.208;2023-01-31T06:21:42;2.80;99.90
18456;DHT22;9357;49.900;8.208;2023-01-31T06:23:15;2.80;99.90
18456;DHT22;9357;49.900;8.208;2023-01-31T06:24:48;2.80;99.90
18456;DHT22;9357;49.900;8.208;2023-01-31T06:26:20;2.80;99.90
18456;DHT22;9357;49.900;8.208;2023-01-31T06:27:54;2.80;99.90
18456;DHT22;9357;49.900;8.208;2023-01-31T06:29:28;2.80;99.90
18456;DHT22;9357;49.900;8.208;2023-01-31T06:31:05;2.90;99.90
18456;DHT22;9357;49.900;8.208;2023-01-31T06:32:38;3.00;99.90
18456;DHT22;9357;49.900;8.208;2023-01-31T06:34:11;3.00;99.90
18456;DHT22;9357;49.900;8.208;2023-01-31T06:35:44;3.10;99.90
18456;DHT22;9357;49.900;8.208;2023-01-31T06:37:16;3.20;99.90
18456;DHT22;9357;49.900;8.208;2023-01-31T06:38:50;3.30;99.90
18456;DHT22;9357;49.900;8.208;2023-01-31T06:40:22;3.30;99.90
18456;DHT22;9357;49.900;8.208;2023-01-31T06:41:55;3.40;99.90
18456;DHT22;9357;49.900;8.208;2023-01-31T06:43:28;3.40;99.90
18456;DHT22;9357;49.900;8.208;2023-01-31T06:45:02;3.50;99.90
18456;DHT22;9357;49.900;8.208;2023-01-31T06:46:35;3.40;99.90
18456;DHT22;9357;49.900;8.208;2023-01-31T06:48:09;3.30;99.90
18456;DHT22;9357;49.900;8.208;2023-01-31T06:49:42;3.30;99.90
18456;DHT22;9357;49.900;8.208;2023-01-31T06:51:14;3.20;99.90
18456;DHT22;9357;49.900;8.208;2023-01-31T06:52:47;3.30;99.90
18456;DHT22;9357;49.900;8.208;2023-01-31T06:54:20;3.30;99.90
18456;DHT22;9357;49.900;8.208;2023-01-31T06:55:53;3.40;99.90
18456;DHT22;9357;49.900;8.208;2023-01-31T06:57:26;3.50;99.90
18456;DHT22;9357;49.900;8.208;2023-01-31T06:58:58;3.60;99.90
18456;DHT22;9357;49.900;8.208;2023-01-31T07:00:32;3.70;99.90
18456;DHT22;9357;49.900;8.208;2023-01-31T07:02:05;3.90;99.90
18456;DHT22;9357;49.900;8.208;2023-01-31T07:03:38;4.00;99.90
18456;DHT22;9357;49.900;8.208;2023-01-31T07:05:11;4.10;99.90
18456;DHT22;9357;49.900;8.208;2023-01-31T07:06:44;4.20;99.90
18456;DHT22;9357;49.900;8.208;2023-01-31T07:08:17;4.30;99.90
18456;DHT22;9357;49.900;8.208;2023-01-31T07:09:49;4.50;99.90
18456;DHT22;9357;49.900;8.208;2023-01-31T07:11:22;4.60;99.90
18456;DHT22;9357;49.900;8.208;2023-01-31T07:12:55;4.70;99.90
18456;DHT22;9357;49.900;8.208;2023-01-31T07:14:28;4.80;99.90
18456;DHT22;9357;49.900;8.208;2023-01-31T07:16:02;4.90;99.90
18456;DHT22;9357;49.900;8.208;2023-01-31T07:17:35;5.00;99.90
18456;DHT22;9357;49.900;8.208;2023-01-31T07:19:08;5.00;99.90
18456;DHT22;9357;49.900;8.208;2023-01-31T07:20:41;5.10;99.90
18456;DHT22;9357;49.900;8.208;2023-01-31T07:22:14;5.10;99.90
18456;DHT22;9357;49.900;8.208;2023-01-31T07:23:47;5.10;99.90
18456;DHT22;9357;49.900;8.208;2023-01-31T07:25:20;5.20;99.90
18456;DHT22;9357;49.900;8.208;2023-01-31T07:26:53;5.20;99.90
18456;DHT22;9357;49.900;8.208;2023-01-31T07:28:25;5.30;99.90
18456;DHT22;9357;49.900;8.208;2023-01-31T07:29:58;5.30;99.90
18456;DHT22;9357;49.900;8.208;2023-01-31T07:31:33;5.30;99.90
18456;DHT22;9357;49.900;8.208;2023-01-31T07:33:05;5.40;99.90
18456;DHT22;9357;49.900;8.208;2023-01-31T07:34:38;5.40;99.90
18456;DHT22;9357;49.900;8.208;2023-01-31T07:36:13;5.50;99.90
18456;DHT22;9357;49.900;8.208;2023-01-31T07:37:46;5.50;99.90
18456;DHT22;9357;49.900;8.208;2023-01-31T07:39:19;5.60;99.90
18456;DHT22;9357;49.900;8.208;2023-01-31T07:40:52;5.70;99.90
18456;DHT22;9357;49.900;8.208;2023-01-31T07:42:24;5.80;99.90
18456;DHT22;9357;49.900;8.208;2023-01-31T07:43:57;5.90;99.90
18456;DHT22;9357;49.900;8.208;2023-01-31T07:45:30;6.00;99.90
18456;DHT22;9357;49.900;8.208;2023-01-31T07:47:05;6.10;99.90
18456;DHT22;9357;49.900;8.208;2023-01-31T07:48:38;6.10;99.90
18456;DHT22;9357;49.900;8.208;2023-01-31T07:50:11;6.20;99.90
18456;DHT22;9357;49.900;8.208;2023-01-31T07:51:43;6.20;99.90
18456;DHT22;9357;49.900;8.208;2023-01-31T07:53:16;6.10;99.90
18456;DHT22;9357;49.900;8.208;2023-01-31T07:54:49;6.10;99.90
18456;DHT22;9357;49.900;8.208;2023-01-31T07:56:22;6.00;99.90
18456;DHT22;9357;49.900;8.208;2023-01-31T07:57:55;6.00;99.90
18456;DHT22;9357;49.900;8.208;2023-01-31T07:59:27;5.90;99.90
18456;DHT22;9357;49.900;8.208;2023-01-31T08:01:00;5.80;99.90
18456;DHT22;9357;49.900;8.208;2023-01-31T08:02:52;5.90;99.90
18456;DHT22;9357;49.900;8.208;2023-01-31T08:04:42;5.90;99.90
18456;DHT22;9357;49.900;8.208;2023-01-31T08:06:15;5.90;99.90
18456;DHT22;9357;49.900;8.208;2023-01-31T08:07:48;5.80;99.90
18456;DHT22;9357;49.900;8.208;2023-01-31T08:09:40;5.70;99.90
18456;DHT22;9357;49.900;8.208;2023-01-31T08:11:14;5.70;99.90
18456;DHT22;9357;49.900;8.208;2023-01-31T08:12:46;5.60;99.90
18456;DHT22;9357;49.900;8.208;2023-01-31T08:14:20;5.50;99.90
18456;DHT22;9357;49.900;8.208;2023-01-31T08:15:56;5.40;99.90
18456;DHT22;9357;49.900;8.208;2023-01-31T08:17:28;5.50;99.90
18456;DHT22;9357;49.900;8.208;2023-01-31T08:19:05;5.50;99.90
18456;DHT22;9357;49.900;8.208;2023-01-31T08:20:37;5.40;99.90
18456;DHT22;9357;49.900;8.208;2023-01-31T08:22:11;5.40;99.90
18456;DHT22;9357;49.900;8.208;2023-01-31T08:23:45;5.50;99.90
18456;DHT22;9357;49.900;8.208;2023-01-31T08:25:18;5.50;99.90
18456;DHT22;9357;49.900;8.208;2023-01-31T08:26:51;5.50;99.90
18456;DHT22;9357;49.900;8.208;2023-01-31T08:28:24;5.40;99.90
18456;DHT22;9357;49.900;8.208;2023-01-31T08:29:57;5.40;99.90
18456;DHT22;9357;49.900;8.208;2023-01-31T08:31:29;5.40;99.90
18456;DHT22;9357;49.900;8.208;2023-01-31T08:33:03;5.40;99.90
18456;DHT22;9357;49.900;8.208;2023-01-31T08:34:37;5.40;99.90
18456;DHT22;9357;49.900;8.208;2023-01-31T08:36:11;5.40;99.90
18456;DHT22;9357;49.900;8.208;2023-01-31T08:37:44;5.30;99.90
18456;DHT22;9357;49.900;8.208;2023-01-31T08:39:17;5.40;99.90
18456;DHT22;9357;49.900;8.208;2023-01-31T08:40:50;5.40;99.90
18456;DHT22;9357;49.900;8.208;2023-01-31T08:42:22;5.40;99.90
18456;DHT22;9357;49.900;8.208;2023-01-31T08:43:55;5.40;99.90
18456;DHT22;9357;49.900;8.208;2023-01-31T08:45:30;5.40;99.90
18456;DHT22;9357;49.900;8.208;2023-01-31T08:47:03;5.50;99.90
18456;DHT22;9357;49.900;8.208;2023-01-31T08:48:37;5.50;99.90
18456;DHT22;9357;49.900;8.208;2023-01-31T08:50:12;5.60;99.90
18456;DHT22;9357;49.900;8.208;2023-01-31T08:51:58;5.60;99.90
18456;DHT22;9357;49.900;8.208;2023-01-31T08:53:30;5.50;99.90
18456;DHT22;9357;49.900;8.208;2023-01-31T08:55:05;5.40;99.90
18456;DHT22;9357;49.900;8.208;2023-01-31T08:56:39;5.30;99.90
18456;DHT22;9357;49.900;8.208;2023-01-31T08:58:12;5.20;99.90
18456;DHT22;9357;49.900;8.208;2023-01-31T08:59:45;5.10;99.90
18456;DHT22;9357;49.900;8.208;2023-01-31T09:01:18;5.10;99.90
18456;DHT22;9357;49.900;8.208;2023-01-31T09:02:52;5.00;99.90
18456;DHT22;9357;49.900;8.208;2023-01-31T09:04:25;5.00;99.90
18456;DHT22;9357;49.900;8.208;2023-01-31T09:05:59;4.90;99.90
18456;DHT22;9357;49.900;8.208;2023-01-31T09:07:32;4.80;99.90
18456;DHT22;9357;49.900;8.208;2023-01-31T09:09:05;4.70;99.90
18456;DHT22;9357;49.900;8.208;2023-01-31T09:10:38;4.70;99.90
18456;DHT22;9357;49.900;8.208;2023-01-31T09:12:10;4.60;99.90
18456;DHT22;9357;49.900;8.208;2023-01-31T09:13:43;4.60;99.90
18456;DHT22;9357;49.900;8.208;2023-01-31T09:15:16;4.50;99.90
18456;DHT22;9357;49.900;8.208;2023-01-31T09:16:50;4.50;99.90
18456;DHT22;9357;49.900;8.208;2023-01-31T09:18:23;4.50;99.90
18456;DHT22;9357;49.900;8.208;2023-01-31T09:19:55;4.40;99.90
18456;DHT22;9357;49.900;8.208;2023-01-31T09:21:29;4.40;99.90
18456;DHT22;9357;49.900;8.208;2023-01-31T09:23:03;4.30;99.90
18456;DHT22;9357;49.900;8.208;2023-01-31T09:24:35;4.30;99.90
18456;DHT22;9357;49.900;8.208;2023-01-31T09:26:09;4.30;99.90
18456;DHT22;9357;49.900;8.208;2023-01-31T09:27:42;4.30;99.90
18456;DHT22;9357;49.900;8.208;2023-01-31T09:29:15;4.30;99.90
18456;DHT22;9357;49.900;8.208;2023-01-31T09:30:48;4.30;99.90
18456;DHT22;9357;49.900;8.208;2023-01-31T09:32:21;4.30;99.90
18456;DHT22;9357;49.900;8.208;2023-01-31T09:33:54;4.30;99.90
18456;DHT22;9357;49.900;8.208;2023-01-31T09:35:27;4.30;99.90
18456;DHT22;9357;49.900;8.208;2023-01-31T09:37:01;4.40;99.90
18456;DHT22;9357;49.900;8.208;2023-01-31T09:38:34;4.30;99.90
18456;DHT22;9357;49.900;8.208;2023-01-31T09:40:15;4.40;99.90
18456;DHT22;9357;49.900;8.208;2023-01-31T09:41:56;4.30;99.90
18456;DHT22;9357;49.900;8.208;2023-01-31T09:43:33;4.30;99.90
18456;DHT22;9357;49.900;8.208;2023-01-31T09:45:12;4.30;99.90
18456;DHT22;9357;49.900;8.208;2023-01-31T09:46:50;4.30;99.90
18456;DHT22;9357;49.900;8.208;2023-01-31T09:48:28;4.20;99.90
18456;DHT22;9357;49.900;8.208;2023-01-31T09:50:06;4.20;99.90
18456;DHT22;9357;49.900;8.208;2023-01-31T09:51:43;4.20;99.90
18456;DHT22;9357;49.900;8.208;2023-01-31T09:53:19;4.20;99.90
18456;DHT22;9357;49.900;8.208;2023-01-31T09:54:53;4.20;99.90
18456;DHT22;9357;49.900;8.208;2023-01-31T09:56:31;4.20;99.90
18456;DHT22;9357;49.900;8.208;2023-01-31T09:58:13;4.30;99.90
18456;DHT22;9357;49.900;8.208;2023-01-31T09:59:53;4.30;99.90
18456;DHT22;9357;49.900;8.208;2023-01-31T10:01:35;4.30;99.90
18456;DHT22;9357;49.900;8.208;2023-01-31T10:03:25;4.30;99.90
18456;DHT22;9357;49.900;8.208;2023-01-31T10:05:05;4.30;99.90
18456;DHT22;9357;49.900;8.208;2023-01-31T10:06:47;4.20;99.90
18456;DHT22;9357;49.900;8.208;2023-01-31T10:08:35;4.20;99.90
18456;DHT22;9357;49.900;8.208;2023-01-31T10:10:18;4.20;99.90
18456;DHT22;9357;49.900;8.208;2023-01-31T10:11:58;4.10;99.90
18456;DHT22;9357;49.900;8.208;2023-01-31T10:13:34;4.10;99.90
18456;DHT22;9357;49.900;8.208;2023-01-31T10:15:14;4.10;99.90
18456;DHT22;9357;49.900;8.208;2023-01-31T10:16:57;4.10;99.90
18456;DHT22;9357;49.900;8.208;2023-01-31T10:18:34;4.10;99.90
18456;DHT22;9357;49.900;8.208;2023-01-31T10:20:16;4.10;99.90
18456;DHT22;9357;49.900;8.208;2023-01-31T10:21:52;4.10;99.90
18456;DHT22;9357;49.900;8.208;2023-01-31T10:23:30;4.10;99.90
18456;DHT22;9357;49.900;8.208;2023-01-31T10:25:18;4.10;99.90